Time;durP1;ratioP1;P1;durP2;ratioP2;P2;SDS_P1;SDS_P2;PMS_P1;PMS_P2;Temp;Humidity;BMP_temperature;BMP_pressure;BME280_temperature;BME280_humidity;BME280_pressure;Samples;Min_cycle;Max_cycle;Signal;HPM_P1;HPM_P2
2021/05/26 00:02:11;;;;;;;19.35;3.17;;;11.60;99.90;;;;;;5055552;28;20179;-87
2021/05/26 00:04:37;;;;;;;12.35;2.78;;;11.60;99.90;;;;;;5059683;28;20187;-89
2021/05/26 00:07:02;;;;;;;13.35;2.78;;;11.40;99.90;;;;;;5061567;28;20214;-89
2021/05/26 00:09:28;;;;;;;7.82;2.65;;;11.50;99.90;;;;;;5042076;28;20195;-88
2021/05/26 00:11:54;;;;;;;15.95;3.00;;;11.40;99.90;;;;;;5041895;28;20183;-88
2021/05/26 00:14:20;;;;;;;9.45;2.42;;;11.40;99.90;;;;;;5042774;28;20223;-88
2021/05/26 00:16:45;;;;;;;9.75;2.42;;;11.30;99.90;;;;;;5046022;28;20183;-87
2021/05/26 00:19:12;;;;;;;5.18;1.73;;;11.30;99.90;;;;;;5055575;28;20268;-87
2021/05/26 00:21:38;;;;;;;3.85;2.20;;;11.30;99.90;;;;;;5055560;28;20171;-88
2021/05/26 00:24:05;;;;;;;8.55;2.03;;;11.20;99.90;;;;;;5055031;28;20387;-88
2021/05/26 00:26:31;;;;;;;10.10;1.75;;;11.10;99.90;;;;;;5034939;28;20182;-88
2021/05/26 00:28:56;;;;;;;6.43;1.80;;;11.10;99.90;;;;;;5050630;28;20184;-88
2021/05/26 00:31:24;;;;;;;3.13;1.38;;;11.00;99.90;;;;;;5055975;28;20179;-88
2021/05/26 00:33:50;;;;;;;3.65;1.27;;;11.00;99.90;;;;;;5054955;28;20626;-90
2021/05/26 00:36:16;;;;;;;3.50;1.58;;;11.00;99.90;;;;;;5054749;28;20167;-87
2021/05/26 00:38:42;;;;;;;5.43;1.20;;;11.00;99.90;;;;;;5055708;28;20172;-87
2021/05/26 00:41:08;;;;;;;5.35;1.70;;;11.00;99.90;;;;;;5034727;28;20213;-86
2021/05/26 00:43:33;;;;;;;1.85;1.02;;;11.00;99.90;;;;;;5018577;28;20521;-88
2021/05/26 00:45:59;;;;;;;5.32;1.25;;;10.90;99.90;;;;;;5020863;28;20168;-89
2021/05/26 00:48:25;;;;;;;5.45;1.35;;;11.00;99.90;;;;;;5038261;28;20195;-89
2021/05/26 00:50:51;;;;;;;3.95;1.30;;;11.00;99.90;;;;;;5054568;28;20168;-89
2021/05/26 00:53:17;;;;;;;3.60;1.25;;;11.10;99.90;;;;;;5038205;28;20265;-88
2021/05/26 00:55:43;;;;;;;3.97;1.35;;;11.10;99.90;;;;;;5038182;28;20270;-88
2021/05/26 00:58:09;;;;;;;3.33;0.80;;;11.10;99.90;;;;;;5053806;28;20184;-88
2021/05/26 01:00:39;;;;;;;5.45;1.00;;;11.10;99.90;;;;;;5054104;28;20178;-89
2021/05/26 01:03:06;;;;;;;2.67;1.05;;;11.20;99.90;;;;;;5054483;28;20214;-88
2021/05/26 01:05:32;;;;;;;3.95;1.02;;;11.20;99.90;;;;;;5055639;28;20175;-89
2021/05/26 01:07:58;;;;;;;7.20;1.45;;;11.20;99.90;;;;;;5054098;28;20700;-89
2021/05/26 01:10:26;;;;;;;3.60;1.00;;;11.20;99.90;;;;;;5055571;28;20522;-89
2021/05/26 01:12:52;;;;;;;5.10;1.25;;;11.10;99.90;;;;;;5055229;28;20191;-87
2021/05/26 01:15:19;;;;;;;4.70;1.40;;;11.10;99.90;;;;;;5037575;28;20185;-87
2021/05/26 01:17:46;;;;;;;2.17;0.93;;;11.00;99.90;;;;;;5055454;28;20222;-87
2021/05/26 01:20:26;;;;;;;5.30;1.40;;;11.00;99.90;;;;;;5054987;28;20191;-87
2021/05/26 01:22:53;;;;;;;5.20;1.30;;;11.10;99.90;;;;;;5053704;28;20163;-87
2021/05/26 01:25:19;;;;;;;3.42;1.33;;;11.10;99.90;;;;;;5053528;28;20172;-87
2021/05/26 01:27:46;;;;;;;5.03;1.30;;;11.20;99.90;;;;;;5051755;28;20175;-88
2021/05/26 01:30:12;;;;;;;3.92;1.83;;;11.30;99.90;;;;;;5053582;28;20171;-87
2021/05/26 01:32:43;;;;;;;7.43;2.15;;;11.20;99.90;;;;;;5054766;28;20191;-88
2021/05/26 01:35:11;;;;;;;5.93;1.92;;;11.10;99.90;;;;;;5053544;28;20168;-88
2021/05/26 01:37:39;;;;;;;11.32;2.75;;;11.00;99.90;;;;;;5053479;28;20168;-87
2021/05/26 01:40:06;;;;;;;9.35;2.30;;;11.00;99.90;;;;;;5053567;28;20266;-87
2021/05/26 01:42:33;;;;;;;6.90;2.35;;;11.00;99.90;;;;;;5053507;28;20175;-87
2021/05/26 01:44:59;;;;;;;8.02;2.17;;;11.00;99.90;;;;;;5037048;28;20537;-87
2021/05/26 01:47:25;;;;;;;4.47;1.85;;;11.00;99.90;;;;;;5050557;28;20217;-87
2021/05/26 01:49:50;;;;;;;6.03;1.80;;;11.10;99.90;;;;;;5033205;28;20583;-87
2021/05/26 01:52:16;;;;;;;4.72;1.98;;;11.10;99.90;;;;;;5043920;28;20232;-86
2021/05/26 01:54:42;;;;;;;13.82;2.70;;;11.10;99.90;;;;;;5055443;28;20194;-87
2021/05/26 01:57:08;;;;;;;10.27;2.38;;;11.20;99.90;;;;;;5077503;28;20167;-86
2021/05/26 01:59:33;;;;;;;4.18;2.00;;;11.20;99.90;;;;;;5070751;28;20249;-88
2021/05/26 02:01:59;;;;;;;4.45;1.80;;;11.20;99.90;;;;;;5053225;28;20195;-87
2021/05/26 02:04:25;;;;;;;6.13;1.83;;;11.20;99.90;;;;;;5052986;28;20190;-87
2021/05/26 02:07:11;;;;;;;1.95;1.50;;;11.20;99.90;;;;;;5053047;28;20178;-88
2021/05/26 02:09:37;;;;;;;5.28;1.88;;;11.20;99.90;;;;;;5055638;28;20170;-87
2021/05/26 02:12:21;;;;;;;9.55;1.83;;;11.10;99.90;;;;;;5074736;28;20156;-87
2021/05/26 02:14:51;;;;;;;5.22;1.88;;;11.00;99.90;;;;;;5077785;28;20151;-88
2021/05/26 02:17:17;;;;;;;5.35;1.42;;;10.90;99.90;;;;;;5061565;28;20277;-87
2021/05/26 02:19:43;;;;;;;10.35;1.83;;;10.90;99.90;;;;;;5052461;28;20179;-87
2021/05/26 02:22:09;;;;;;;3.58;1.80;;;10.90;99.90;;;;;;5053123;28;20186;-87
2021/05/26 02:24:35;;;;;;;4.88;2.13;;;10.90;99.90;;;;;;5054499;28;20176;-88
2021/05/26 02:27:00;;;;;;;4.45;1.88;;;10.90;99.90;;;;;;5036336;28;20182;-88
2021/05/26 02:29:26;;;;;;;4.40;1.75;;;11.00;99.90;;;;;;5054181;28;20183;-87
2021/05/26 02:31:52;;;;;;;3.53;1.33;;;11.00;99.90;;;;;;5052827;28;20246;-88
2021/05/26 02:34:18;;;;;;;3.83;2.17;;;11.00;99.90;;;;;;5052814;28;20195;-88
2021/05/26 02:36:43;;;;;;;8.40;1.77;;;11.00;99.90;;;;;;5052676;28;20701;-88
2021/05/26 02:39:10;;;;;;;4.00;1.95;;;10.90;99.90;;;;;;5054505;28;20167;-88
2021/05/26 02:41:35;;;;;;;7.00;1.77;;;10.90;99.90;;;;;;5057233;28;20172;-88
2021/05/26 02:44:01;;;;;;;4.95;1.52;;;10.90;99.90;;;;;;5057133;28;20171;-88
2021/05/26 02:46:27;;;;;;;5.15;1.98;;;10.90;99.90;;;;;;5055670;28;20163;-86
2021/05/26 02:48:52;;;;;;;7.22;2.05;;;10.90;99.90;;;;;;5056632;28;20168;-87
2021/05/26 02:51:18;;;;;;;4.57;1.83;;;10.90;99.90;;;;;;5056757;28;20251;-87
2021/05/26 02:53:44;;;;;;;9.15;1.95;;;11.00;99.90;;;;;;5057701;28;20198;-87
2021/05/26 02:56:10;;;;;;;5.43;2.22;;;11.10;99.90;;;;;;5056405;28;20171;-88
2021/05/26 02:58:37;;;;;;;3.72;2.10;;;11.10;99.90;;;;;;5057785;28;20187;-87
2021/05/26 03:01:03;;;;;;;6.07;2.45;;;11.10;99.90;;;;;;5057657;28;20182;-87
2021/05/26 03:03:29;;;;;;;8.60;2.10;;;11.20;99.90;;;;;;5056631;28;20625;-88
2021/05/26 03:05:54;;;;;;;10.48;2.90;;;11.20;99.90;;;;;;5057920;28;20172;-88
2021/05/26 03:08:20;;;;;;;8.73;2.55;;;11.30;99.90;;;;;;5057693;28;20578;-88
2021/05/26 03:10:46;;;;;;;6.13;2.40;;;11.30;99.90;;;;;;5057501;28;20186;-88
2021/05/26 03:13:11;;;;;;;4.72;2.10;;;11.30;99.90;;;;;;5039821;28;20238;-86
2021/05/26 03:15:37;;;;;;;8.27;2.88;;;11.30;99.90;;;;;;5057608;28;20581;-88
2021/05/26 03:18:05;;;;;;;12.68;3.38;;;11.30;99.90;;;;;;5057529;28;20175;-88
2021/05/26 03:20:32;;;;;;;7.05;3.00;;;11.30;99.90;;;;;;5056418;28;20232;-88
2021/05/26 03:22:57;;;;;;;5.90;2.70;;;11.30;99.90;;;;;;5056451;28;20171;-88
2021/05/26 03:25:24;;;;;;;4.63;2.72;;;11.40;99.90;;;;;;5056437;28;20183;-88
2021/05/26 03:27:50;;;;;;;3.38;2.63;;;11.40;99.90;;;;;;5056508;28;20222;-88
2021/05/26 03:30:17;;;;;;;4.43;2.67;;;11.40;99.90;;;;;;5056181;28;20628;-88
2021/05/26 03:32:44;;;;;;;6.20;3.47;;;11.40;99.90;;;;;;5057547;28;20308;-88
2021/05/26 03:35:11;;;;;;;3.22;2.90;;;11.50;99.90;;;;;;5056191;28;20201;-88
2021/05/26 03:37:38;;;;;;;8.13;3.42;;;11.50;99.90;;;;;;5056436;28;20182;-88
2021/05/26 03:40:06;;;;;;;9.43;3.53;;;11.50;99.90;;;;;;5057099;28;20171;-88
2021/05/26 03:42:31;;;;;;;4.57;3.25;;;11.60;99.90;;;;;;5057331;28;20168;-88
2021/05/26 03:44:57;;;;;;;4.28;3.08;;;11.50;99.90;;;;;;5055934;28;20693;-88
2021/05/26 03:47:23;;;;;;;4.40;3.10;;;11.50;99.90;;;;;;5039344;28;20186;-88
2021/05/26 03:49:48;;;;;;;5.32;3.00;;;11.50;99.90;;;;;;5035488;28;20173;-88
2021/05/26 03:52:14;;;;;;;6.50;3.40;;;11.40;99.90;;;;;;5035765;28;20184;-88
2021/05/26 03:54:40;;;;;;;5.38;3.45;;;11.30;99.90;;;;;;5039277;28;20641;-88
2021/05/26 03:57:06;;;;;;;4.75;3.22;;;11.30;99.90;;;;;;5055868;28;20167;-88
2021/05/26 03:59:32;;;;;;;16.40;4.30;;;11.40;99.90;;;;;;5057090;28;20179;-88
2021/05/26 04:01:58;;;;;;;7.00;3.60;;;11.50;99.90;;;;;;5055833;28;20170;-88
2021/05/26 04:04:23;;;;;;;8.10;4.78;;;11.60;99.90;;;;;;5055879;28;20171;-88
2021/05/26 04:06:49;;;;;;;8.18;3.95;;;11.70;99.90;;;;;;5055914;28;20171;-88
2021/05/26 04:09:15;;;;;;;4.95;3.28;;;11.70;99.90;;;;;;5055644;28;20176;-88
2021/05/26 04:11:41;;;;;;;8.55;4.18;;;11.80;99.90;;;;;;5055416;28;20644;-88
2021/05/26 04:14:07;;;;;;;8.15;4.05;;;11.80;99.90;;;;;;5055282;28;20211;-87
2021/05/26 04:16:33;;;;;;;10.60;4.22;;;11.90;99.90;;;;;;5055601;28;20168;-88
2021/05/26 04:18:59;;;;;;;9.07;4.25;;;12.00;99.90;;;;;;5055720;28;20595;-87
2021/05/26 04:21:25;;;;;;;8.77;4.47;;;12.10;99.90;;;;;;5055781;28;20640;-88
2021/05/26 04:23:50;;;;;;;8.90;4.70;;;12.10;99.90;;;;;;5060063;28;20183;-87
2021/05/26 04:26:16;;;;;;;11.50;5.15;;;12.10;99.90;;;;;;5078722;28;20187;-87
2021/05/26 04:28:45;;;;;;;9.57;5.47;;;12.20;99.90;;;;;;5062736;28;20163;-87
2021/05/26 04:31:13;;;;;;;12.52;4.90;;;12.30;99.90;;;;;;5057694;28;20175;-88
2021/05/26 04:33:39;;;;;;;12.90;5.20;;;12.40;99.90;;;;;;5055376;28;20233;-88
2021/05/26 04:36:06;;;;;;;8.02;4.68;;;12.60;99.90;;;;;;5055027;28;20206;-87
2021/05/26 04:38:32;;;;;;;8.43;5.15;;;12.70;99.90;;;;;;5056118;28;20168;-88
2021/05/26 04:40:59;;;;;;;7.60;4.30;;;12.80;99.90;;;;;;5068102;28;20183;-87
2021/05/26 04:43:25;;;;;;;6.30;3.90;;;12.70;99.90;;;;;;5076976;28;20197;-87
2021/05/26 04:45:52;;;;;;;6.70;4.43;;;12.60;99.90;;;;;;5078682;28;20160;-88
2021/05/26 04:48:17;;;;;;;7.25;3.83;;;12.50;99.90;;;;;;5019131;28;20176;-87
2021/05/26 04:50:43;;;;;;;8.57;4.00;;;12.40;99.90;;;;;;5049937;28;20182;-88
2021/05/26 04:53:09;;;;;;;7.93;4.40;;;12.30;99.90;;;;;;5038420;28;20204;-87
2021/05/26 04:55:35;;;;;;;6.72;3.90;;;12.30;99.90;;;;;;5055748;28;20239;-88
2021/05/26 04:58:02;;;;;;;8.15;4.07;;;12.30;99.90;;;;;;5054430;28;20191;-88
2021/05/26 05:00:29;;;;;;;5.57;3.95;;;12.30;99.90;;;;;;5055528;28;20293;-87
2021/05/26 05:02:56;;;;;;;7.30;2.95;;;12.30;99.90;;;;;;5053321;28;20195;-87
2021/05/26 05:05:22;;;;;;;4.68;3.63;;;12.40;99.90;;;;;;5053659;28;20178;-87
2021/05/26 05:07:48;;;;;;;6.15;3.22;;;12.30;99.90;;;;;;5054497;28;20175;-87
2021/05/26 05:10:14;;;;;;;5.35;3.03;;;12.30;99.90;;;;;;5054195;28;20206;-87
2021/05/26 05:12:40;;;;;;;6.85;3.45;;;12.30;99.90;;;;;;5054138;28;20195;-87
2021/05/26 05:15:07;;;;;;;4.30;3.08;;;12.30;99.90;;;;;;5054199;28;20239;-87
2021/05/26 05:17:32;;;;;;;4.60;3.47;;;12.40;99.90;;;;;;5054113;28;20505;-87
2021/05/26 05:19:58;;;;;;;5.15;3.15;;;12.50;99.90;;;;;;5054161;28;20178;-88
2021/05/26 05:22:24;;;;;;;5.00;3.38;;;12.70;99.90;;;;;;5055333;28;20221;-88
2021/05/26 05:24:51;;;;;;;7.68;3.38;;;12.70;99.90;;;;;;5055196;28;20179;-88
2021/05/26 05:27:16;;;;;;;5.07;3.60;;;12.70;99.90;;;;;;5054268;28;20202;-88
2021/05/26 05:29:42;;;;;;;7.97;3.05;;;12.80;99.90;;;;;;5054174;28;20202;-87
2021/05/26 05:32:08;;;;;;;6.50;3.38;;;13.00;99.90;;;;;;5055385;28;20621;-88
2021/05/26 05:34:33;;;;;;;3.80;3.08;;;13.20;99.90;;;;;;5053739;28;20195;-87
2021/05/26 05:36:59;;;;;;;5.25;3.05;;;13.10;99.90;;;;;;5037543;28;20620;-88
2021/05/26 05:39:25;;;;;;;5.60;3.25;;;13.00;99.90;;;;;;5054248;28;20183;-88
2021/05/26 05:41:50;;;;;;;4.97;2.97;;;13.00;99.90;;;;;;5037498;28;20179;-88
2021/05/26 05:44:16;;;;;;;8.65;3.20;;;13.00;99.90;;;;;;5053969;28;20664;-88
2021/05/26 05:46:42;;;;;;;6.68;4.03;;;13.10;99.90;;;;;;5055198;28;20204;-88
2021/05/26 05:49:07;;;;;;;7.55;3.75;;;13.20;99.90;;;;;;5053164;28;20625;-88
2021/05/26 05:51:34;;;;;;;4.07;3.17;;;13.30;99.90;;;;;;5053866;28;20174;-88
2021/05/26 05:53:59;;;;;;;8.20;3.70;;;13.30;99.90;;;;;;5053625;28;20199;-88
2021/05/26 05:56:25;;;;;;;5.30;3.88;;;13.40;99.90;;;;;;5053461;28;20184;-88
2021/05/26 05:58:51;;;;;;;5.32;3.45;;;13.50;99.90;;;;;;5056863;28;20237;-89
2021/05/26 06:01:16;;;;;;;5.55;3.42;;;13.60;99.90;;;;;;5033886;28;20180;-89
2021/05/26 06:03:42;;;;;;;9.40;3.17;;;13.70;99.90;;;;;;5035774;28;20180;-88
2021/05/26 06:06:08;;;;;;;5.38;3.33;;;13.70;99.90;;;;;;5053857;28;20237;-88
2021/05/26 06:08:35;;;;;;;5.40;3.47;;;13.70;99.90;;;;;;5053449;28;20310;-88
2021/05/26 06:11:02;;;;;;;5.93;3.35;;;13.80;99.90;;;;;;5053517;28;20164;-88
2021/05/26 06:13:28;;;;;;;8.73;3.72;;;14.00;99.90;;;;;;5052848;28;20199;-89
2021/05/26 06:15:54;;;;;;;4.10;3.40;;;13.90;99.90;;;;;;5053814;28;20171;-88
2021/05/26 06:18:20;;;;;;;6.95;3.35;;;13.90;99.90;;;;;;5054429;28;20186;-88
2021/05/26 06:20:46;;;;;;;4.88;2.92;;;14.00;99.90;;;;;;5053164;28;20167;-89
2021/05/26 06:23:12;;;;;;;4.72;2.80;;;14.10;99.90;;;;;;5053409;28;20174;-89
2021/05/26 06:25:38;;;;;;;7.68;3.35;;;14.10;99.90;;;;;;5053417;28;20168;-89
2021/05/26 06:28:04;;;;;;;3.88;2.85;;;14.00;99.90;;;;;;5053410;28;20159;-88
2021/05/26 06:30:30;;;;;;;6.55;3.03;;;14.00;99.90;;;;;;5053109;28;20532;-88
2021/05/26 06:32:57;;;;;;;8.02;3.17;;;14.00;99.90;;;;;;5036765;28;20199;-88
2021/05/26 06:35:22;;;;;;;3.55;2.80;;;14.10;99.90;;;;;;5053943;28;20175;-89
2021/05/26 06:37:48;;;;;;;6.47;2.47;;;14.30;99.90;;;;;;5053278;28;20543;-88
2021/05/26 06:40:14;;;;;;;2.08;1.70;;;14.50;99.90;;;;;;5053029;28;20184;-88
2021/05/26 06:42:40;;;;;;;2.45;1.75;;;14.40;99.90;;;;;;5036984;28;20168;-88
2021/05/26 06:45:06;;;;;;;4.72;1.63;;;14.30;99.90;;;;;;5033059;28;20174;-88
2021/05/26 06:47:32;;;;;;;2.90;2.05;;;14.30;99.90;;;;;;5052888;28;20202;-88
2021/05/26 06:49:59;;;;;;;1.65;1.52;;;14.60;99.90;;;;;;5052822;28;20180;-89
2021/05/26 06:52:25;;;;;;;1.50;1.30;;;15.00;99.90;;;;;;5062322;28;20169;-88
2021/05/26 06:54:51;;;;;;;2.13;1.52;;;15.00;99.90;;;;;;5074819;28;20183;-88
2021/05/26 06:57:17;;;;;;;2.78;1.70;;;14.90;99.90;;;;;;5076614;28;20167;-88
2021/05/26 06:59:45;;;;;;;2.35;1.90;;;14.90;99.90;;;;;;5051606;28;20218;-87
2021/05/26 07:02:10;;;;;;;5.15;1.98;;;15.00;99.90;;;;;;5053105;28;20175;-88
2021/05/26 07:04:36;;;;;;;7.07;1.67;;;14.90;99.90;;;;;;5057323;28;20250;-88
2021/05/26 07:07:02;;;;;;;1.45;1.13;;;14.60;99.90;;;;;;5060444;28;20164;-88
2021/05/26 07:09:27;;;;;;;1.90;1.30;;;14.50;99.90;;;;;;5068807;28;20235;-88
2021/05/26 07:11:53;;;;;;;4.03;1.35;;;14.60;99.90;;;;;;5075507;28;20154;-88
2021/05/26 07:14:19;;;;;;;2.15;1.38;;;14.80;99.90;;;;;;5077399;28;20201;-86
2021/05/26 07:16:45;;;;;;;2.65;1.67;;;14.90;99.90;;;;;;5076609;28;20167;-87
2021/05/26 07:19:11;;;;;;;3.60;1.50;;;15.40;99.90;;;;;;5072030;28;20233;-89
2021/05/26 07:21:36;;;;;;;2.75;1.40;;;15.80;99.90;;;;;;5053242;28;20206;-89
2021/05/26 07:24:02;;;;;;;3.13;1.40;;;16.20;99.90;;;;;;5054085;28;20624;-89
2021/05/26 07:26:28;;;;;;;2.15;1.42;;;16.60;99.90;;;;;;5055929;28;20168;-89
2021/05/26 07:28:54;;;;;;;2.10;1.50;;;16.90;99.90;;;;;;5062743;28;20173;-89
2021/05/26 07:31:19;;;;;;;3.05;1.70;;;16.90;99.90;;;;;;5076680;28;20170;-88
2021/05/26 07:33:45;;;;;;;3.90;1.50;;;16.60;99.90;;;;;;5059853;28;20248;-89
2021/05/26 07:36:12;;;;;;;3.03;2.20;;;16.40;99.90;;;;;;5068887;28;20687;-89
2021/05/26 07:38:38;;;;;;;9.27;2.83;;;16.20;99.90;;;;;;5056904;28;20679;-88
2021/05/26 07:41:04;;;;;;;7.38;2.75;;;16.20;99.90;;;;;;5052945;28;20178;-88
2021/05/26 07:43:32;;;;;;;6.50;3.00;;;16.10;99.90;;;;;;5052661;28;20176;-88
2021/05/26 07:45:58;;;;;;;4.05;2.90;;;16.10;99.90;;;;;;5038343;28;20217;-88
2021/05/26 07:48:24;;;;;;;5.18;2.75;;;16.30;99.90;;;;;;5035680;28;20753;-89
2021/05/26 07:50:50;;;;;;;6.10;2.70;;;16.80;99.90;;;;;;5055541;28;20175;-89
2021/05/26 07:53:15;;;;;;;4.22;2.17;;;18.60;99.90;;;;;;5054085;28;20668;-90
2021/05/26 07:55:41;;;;;;;5.07;2.45;;;20.30;99.90;;;;;;5056103;28;20467;-89
2021/05/26 07:58:07;;;;;;;2.97;1.77;;;22.20;99.90;;;;;;5054866;28;20187;-88
2021/05/26 08:00:33;;;;;;;4.78;2.10;;;23.10;99.90;;;;;;5055066;28;20179;-89
2021/05/26 08:02:58;;;;;;;3.67;1.67;;;24.50;99.90;;;;;;5054479;28;20298;-90
2021/05/26 08:05:25;;;;;;;3.72;1.70;;;23.70;99.90;;;;;;5056109;28;20171;-90
2021/05/26 08:07:51;;;;;;;8.73;2.05;;;24.00;99.90;;;;;;5035147;28;20183;-89
2021/05/26 08:10:17;;;;;;;2.90;1.90;;;24.20;99.90;;;;;;5035033;28;20172;-89
2021/05/26 08:12:43;;;;;;;3.10;1.48;;;26.10;99.90;;;;;;5039301;28;20203;-90
2021/05/26 08:15:09;;;;;;;4.65;1.40;;;28.60;99.90;;;;;;5055950;28;20193;-89
2021/05/26 08:17:35;;;;;;;1.98;1.17;;;31.20;99.30;;;;;;5055230;28;20171;-89
2021/05/26 08:20:04;;;;;;;2.65;1.45;;;33.50;93.50;;;;;;5057804;28;20524;-90
2021/05/26 08:22:30;;;;;;;2.00;1.40;;;33.70;91.50;;;;;;5056275;28;20235;-89
2021/05/26 08:24:56;;;;;;;2.03;1.15;;;32.70;90.40;;;;;;5057062;28;20258;-89
2021/05/26 08:27:22;;;;;;;2.90;1.48;;;33.00;90.40;;;;;;5056785;28;20183;-88
2021/05/26 08:29:47;;;;;;;5.63;1.25;;;31.20;90.90;;;;;;5038829;28;20224;-89
2021/05/26 08:32:13;;;;;;;1.92;1.20;;;29.70;91.90;;;;;;5056326;28;20175;-90
2021/05/26 08:34:39;;;;;;;1.63;1.08;;;30.10;91.70;;;;;;5054313;28;20195;-89
2021/05/26 08:37:04;;;;;;;2.88;1.63;;;29.90;92.50;;;;;;5054885;28;20195;-88
2021/05/26 08:39:34;;;;;;;1.75;1.50;;;28.90;92.60;;;;;;5034653;28;20784;-90
2021/05/26 08:42:00;;;;;;;3.25;1.67;;;26.80;94.70;;;;;;5035556;28;20251;-90
2021/05/26 08:44:26;;;;;;;4.57;1.67;;;25.10;96.00;;;;;;5051937;28;20179;-89
2021/05/26 08:46:53;;;;;;;2.90;1.83;;;23.60;97.40;;;;;;5056039;28;20631;-88
2021/05/26 08:49:20;;;;;;;6.10;2.05;;;22.30;99.50;;;;;;5054661;28;20178;-90
2021/05/26 08:51:45;;;;;;;4.18;1.90;;;21.50;99.90;;;;;;5056201;28;20179;-89
2021/05/26 08:54:11;;;;;;;2.35;2.15;;;21.10;99.90;;;;;;5055295;28;20226;-89
2021/05/26 08:56:37;;;;;;;5.90;2.28;;;20.30;99.90;;;;;;5054300;28;20171;-90
2021/05/26 08:59:03;;;;;;;4.45;2.33;;;19.60;99.90;;;;;;5054542;28;20190;-89
2021/05/26 09:01:29;;;;;;;3.70;2.10;;;19.10;99.90;;;;;;5055687;28;20164;-89
2021/05/26 09:03:55;;;;;;;6.05;2.03;;;19.00;99.90;;;;;;5054364;28;20175;-90
2021/05/26 09:06:20;;;;;;;4.10;2.40;;;19.10;99.90;;;;;;5054306;28;20164;-90
2021/05/26 09:08:53;;;;;;;4.57;2.22;;;20.10;99.90;;;;;;5054529;28;20187;-90
2021/05/26 09:11:36;;;;;;;7.32;2.10;;;21.90;99.90;;;;;;5055838;28;20624;-90
2021/05/26 09:14:13;;;;;;;3.00;1.88;;;24.30;99.90;;;;;;5055459;28;20245;-90
2021/05/26 09:16:38;;;;;;;2.67;1.80;;;25.70;99.90;;;;;;5053515;28;20176;-89
2021/05/26 09:19:07;;;;;;;2.85;2.03;;;27.00;98.90;;;;;;5054037;28;20269;-90
2021/05/26 09:21:36;;;;;;;4.85;2.30;;;26.30;97.60;;;;;;5063426;28;20211;-77
2021/05/26 09:24:22;;;;;;;7.22;2.88;;;24.60;99.30;;;;;;5060122;28;20175;-92
2021/05/26 09:26:51;;;;;;;5.38;2.08;;;23.30;99.90;;;;;;5074780;28;20168;-93
2021/05/26 09:29:33;;;;;;;3.78;2.22;;;22.60;99.90;;;;;;5056662;28;20182;-93
2021/05/26 09:32:25;;;;;;;4.38;2.53;;;21.50;99.90;;;;;;5053902;28;20171;-93
2021/05/26 09:34:58;;;;;;;5.22;2.80;;;20.70;99.90;;;;;;5055529;28;20182;-92
2021/05/26 09:37:28;;;;;;;2.83;2.50;;;20.40;99.90;;;;;;5054995;28;20172;-92
2021/05/26 09:40:10;;;;;;;3.78;2.90;;;20.40;99.90;;;;;;5069149;28;20255;-92
2021/05/26 09:43:04;;;;;;;8.90;3.08;;;20.60;99.90;;;;;;5075194;28;20167;-94
2021/05/26 09:45:32;;;;;;;5.40;3.10;;;22.90;99.90;;;;;;5093218;28;20639;-92
2021/05/26 09:47:58;;;;;;;7.90;2.88;;;26.70;99.90;;;;;;5017071;28;20180;-90
2021/05/26 09:50:47;;;;;;;8.77;3.08;;;27.20;98.90;;;;;;5066933;28;20172;-92
2021/05/26 09:53:16;;;;;;;7.47;3.10;;;24.70;99.10;;;;;;5034405;28;20211;-92
2021/05/26 09:55:48;;;;;;;5.85;3.20;;;23.50;99.90;;;;;;5068115;28;20169;-93
2021/05/26 09:58:32;;;;;;;6.25;3.33;;;23.50;99.90;;;;;;5053326;28;20193;-92
2021/05/26 10:00:59;;;;;;;7.88;3.67;;;25.10;99.90;;;;;;5053662;28;20174;-93
2021/05/26 10:03:28;;;;;;;7.63;3.50;;;24.40;99.90;;;;;;5037106;28;20175;-93
2021/05/26 10:05:58;;;;;;;8.65;3.95;;;24.50;99.90;;;;;;5053517;28;20178;-91
2021/05/26 10:08:26;;;;;;;8.13;3.90;;;23.80;99.90;;;;;;5053705;28;20168;-92
2021/05/26 10:10:54;;;;;;;8.23;4.55;;;25.60;99.90;;;;;;5053233;28;20171;-93
2021/05/26 10:13:24;;;;;;;7.18;3.42;;;27.40;99.90;;;;;;5053435;28;20206;-93
2021/05/26 10:15:50;;;;;;;8.60;3.42;;;28.50;98.50;;;;;;5053390;28;20175;-90
2021/05/26 10:18:18;;;;;;;5.88;2.92;;;28.80;96.40;;;;;;5053323;28;20186;-92
2021/05/26 10:20:45;;;;;;;2.90;2.42;;;28.10;96.00;;;;;;5053549;28;20270;-93
2021/05/26 10:23:17;;;;;;;3.03;2.35;;;27.50;96.10;;;;;;5054885;28;20217;-90
2021/05/26 10:25:52;;;;;;;10.43;3.10;;;29.50;95.20;;;;;;5053495;28;20567;-91
2021/05/26 10:28:51;;;;;;;7.78;2.95;;;30.40;92.60;;;;;;5054412;28;20163;-92
2021/05/26 10:31:35;;;;;;;26.40;4.60;;;29.50;93.30;;;;;;5052788;28;20167;-77
2021/05/26 10:34:01;;;;;;;6.95;3.90;;;28.30;94.50;;;;;;5053253;28;20554;-81
2021/05/26 10:36:27;;;;;;;5.75;3.03;;;27.70;94.20;;;;;;5031859;28;20175;-77
2021/05/26 10:38:59;;;;;;;10.43;3.13;;;26.30;95.60;;;;;;5052506;28;20641;-75
2021/05/26 10:41:25;;;;;;;9.45;3.30;;;24.60;97.10;;;;;;5052860;28;20659;-76
2021/05/26 10:44:00;;;;;;;4.50;3.08;;;23.10;98.20;;;;;;5052109;28;20174;-75
2021/05/26 10:46:41;;;;;;;4.88;3.08;;;22.10;99.90;;;;;;5052099;28;20177;-77
2021/05/26 10:49:10;;;;;;;4.90;2.85;;;23.20;99.90;;;;;;5054083;28;20174;-78
2021/05/26 10:51:51;;;;;;;5.18;2.70;;;25.70;96.70;;;;;;5053428;28;20168;-78
2021/05/26 10:54:38;;;;;;;4.22;2.97;;;25.80;96.70;;;;;;5052293;28;20225;-77
2021/05/26 10:57:06;;;;;;;7.18;2.78;;;25.00;96.40;;;;;;5051578;28;20167;-75
2021/05/26 10:59:32;;;;;;;6.30;3.03;;;23.50;97.90;;;;;;5052950;28;20211;-76
2021/05/26 11:02:10;;;;;;;6.85;2.90;;;22.10;99.80;;;;;;5051295;28;20202;-76
2021/05/26 11:04:40;;;;;;;9.32;3.80;;;20.10;99.90;;;;;;5037306;28;20246;-76
2021/05/26 11:07:17;;;;;;;7.03;3.88;;;18.40;99.90;;;;;;5047633;28;20178;-77
2021/05/26 11:10:09;;;;;;;6.18;4.75;;;17.50;99.90;;;;;;5054413;28;20262;-76
2021/05/26 11:12:57;;;;;;;7.50;4.70;;;17.20;99.90;;;;;;5052946;28;20580;-75
2021/05/26 11:15:43;;;;;;;8.70;4.53;;;17.50;99.90;;;;;;5055416;28;20175;-76
2021/05/26 11:18:30;;;;;;;6.05;5.05;;;18.10;99.90;;;;;;5055244;28;20195;-76
2021/05/26 11:20:56;;;;;;;11.43;4.57;;;19.80;99.90;;;;;;5056681;28;20207;-76
2021/05/26 11:23:22;;;;;;;7.00;4.28;;;24.50;99.90;;;;;;5056491;28;20264;-77
2021/05/26 11:25:52;;;;;;;6.53;3.92;;;27.30;99.90;;;;;;5056886;28;20175;-76
2021/05/26 11:28:31;;;;;;;6.55;3.10;;;29.10;99.90;;;;;;5056208;28;20164;-76
2021/05/26 11:31:08;;;;;;;5.32;2.67;;;29.40;99.90;;;;;;5056757;28;20522;-76
2021/05/26 11:33:34;;;;;;;6.57;2.80;;;30.00;99.60;;;;;;5056742;28;20241;-76
2021/05/26 11:36:04;;;;;;;4.68;2.53;;;26.30;99.90;;;;;;5056358;28;20635;-77
2021/05/26 11:38:31;;;;;;;6.05;2.20;;;23.70;99.90;;;;;;5056022;28;20171;-77
2021/05/26 11:40:57;;;;;;;8.75;2.00;;;21.20;99.90;;;;;;5056526;28;20171;-76
2021/05/26 11:43:23;;;;;;;6.05;2.20;;;20.40;99.90;;;;;;5055391;28;20273;-76
2021/05/26 11:46:06;;;;;;;8.23;2.95;;;21.10;99.90;;;;;;5055460;28;20581;-76
2021/05/26 11:48:32;;;;;;;8.68;2.10;;;23.90;99.90;;;;;;5051359;28;20180;-77
2021/05/26 11:50:57;;;;;;;6.40;2.30;;;24.70;99.90;;;;;;5056155;28;20233;-77
2021/05/26 11:53:23;;;;;;;3.60;1.73;;;24.10;99.90;;;;;;5064758;28;20203;-77
2021/05/26 11:55:52;;;;;;;6.85;1.80;;;23.00;99.90;;;;;;5061121;28;20181;-77
2021/05/26 11:58:33;;;;;;;6.00;2.33;;;22.60;99.90;;;;;;5055990;28;20317;-78
2021/05/26 12:01:01;;;;;;;3.55;1.95;;;22.10;99.90;;;;;;5055848;28;20163;-77
2021/05/26 12:03:29;;;;;;;3.40;1.50;;;21.40;99.90;;;;;;5054943;28;20528;-89
2021/05/26 12:05:56;;;;;;;3.35;1.30;;;21.60;99.90;;;;;;5058197;28;20632;-90
2021/05/26 12:08:27;;;;;;;5.57;2.03;;;22.60;99.90;;;;;;5073037;28;20262;-90
2021/05/26 12:11:01;;;;;;;4.03;1.50;;;22.30;99.90;;;;;;5075870;28;20227;-89
2021/05/26 12:13:32;;;;;;;5.53;2.30;;;21.80;99.90;;;;;;5059268;28;20237;-89
2021/05/26 12:16:01;;;;;;;3.90;1.73;;;21.60;99.90;;;;;;5056685;28;20159;-90
2021/05/26 12:18:27;;;;;;;8.07;1.88;;;21.50;99.90;;;;;;5055500;28;20175;-79
2021/05/26 12:20:55;;;;;;;4.75;1.77;;;21.60;99.90;;;;;;5059292;28;20176;-94
2021/05/26 12:23:38;;;;;;;7.45;2.38;;;21.70;99.90;;;;;;5062493;28;20601;-93
2021/05/26 12:26:22;;;;;;;4.97;2.03;;;21.20;99.90;;;;;;5077494;28;20164;-95
2021/05/26 12:28:48;;;;;;;5.18;2.25;;;20.90;99.90;;;;;;5058147;28;20179;-95
2021/05/26 12:31:15;;;;;;;6.65;2.40;;;21.10;99.90;;;;;;5060625;28;20163;-93
2021/05/26 12:33:50;;;;;;;4.88;2.33;;;20.70;99.90;;;;;;5059639;28;20227;-95
2021/05/26 12:36:17;;;;;;;8.85;2.40;;;20.30;99.90;;;;;;5059269;28;20178;-93
2021/05/26 12:38:44;;;;;;;7.72;2.30;;;20.00;99.90;;;;;;5060160;28;20175;-93
2021/05/26 12:41:46;;;;;;;6.93;2.00;;;19.80;99.90;;;;;;5041882;28;20167;-92
2021/05/26 12:44:11;;;;;;;8.10;2.70;;;19.80;99.90;;;;;;5053021;28;20542;-92
2021/05/26 12:46:52;;;;;;;2.15;1.30;;;20.10;99.90;;;;;;5079471;28;20167;-95
2021/05/26 12:49:41;;;;;;;3.20;1.35;;;20.30;99.90;;;;;;5061541;28;20233;-95
2021/05/26 12:52:12;;;;;;;4.57;1.50;;;20.60;99.90;;;;;;5061701;28;20164;-95